sensor_id;sensor_type;location;lat;lon;timestamp;pressure;altitude;pressure_sealevel;temperature;humidity
71735;BME280;59577;52.122;5.406;2022-07-10T00:00:17;102882.78;;;15.74;62.16
71735;BME280;59577;52.122;5.406;2022-07-10T00:02:47;102884.41;;;15.75;62.41
71735;BME280;59577;52.122;5.406;2022-07-10T00:05:13;102871.84;;;15.74;62.74
71735;BME280;59577;52.122;5.406;2022-07-10T00:07:46;102873.00;;;15.73;63.17
71735;BME280;59577;52.122;5.406;2022-07-10T00:10:13;102873.00;;;15.73;62.83
71735;BME280;59577;52.122;5.406;2022-07-10T00:12:39;102867.88;;;15.71;63.27
71735;BME280;59577;52.122;5.406;2022-07-10T00:15:06;102877.53;;;15.69;63.03
71735;BME280;59577;52.122;5.406;2022-07-10T00:17:33;102877.06;;;15.67;63.42
71735;BME280;59577;52.122;5.406;2022-07-10T00:20:00;102875.47;;;15.66;63.72
71735;BME280;59577;52.122;5.406;2022-07-10T00:22:26;102868.44;;;15.65;64.02
71735;BME280;59577;52.122;5.406;2022-07-10T00:24:53;102864.75;;;15.60;63.98
71735;BME280;59577;52.122;5.406;2022-07-10T00:27:20;102858.38;;;15.56;64.53
71735;BME280;59577;52.122;5.406;2022-07-10T00:29:46;102868.38;;;15.52;64.07
71735;BME280;59577;52.122;5.406;2022-07-10T00:32:13;102864.72;;;15.48;64.21
71735;BME280;59577;52.122;5.406;2022-07-10T00:34:39;102864.59;;;15.45;64.51
71735;BME280;59577;52.122;5.406;2022-07-10T00:37:06;102866.88;;;15.42;64.41
71735;BME280;59577;52.122;5.406;2022-07-10T00:39:32;102869.47;;;15.39;64.30
71735;BME280;59577;52.122;5.406;2022-07-10T00:42:15;102869.34;;;15.35;64.53
71735;BME280;59577;52.122;5.406;2022-07-10T00:44:43;102867.28;;;15.32;64.59
71735;BME280;59577;52.122;5.406;2022-07-10T00:47:10;102859.75;;;15.29;64.59
71735;BME280;59577;52.122;5.406;2022-07-10T00:49:38;102859.94;;;15.24;65.03
71735;BME280;59577;52.122;5.406;2022-07-10T00:52:07;102861.44;;;15.21;65.05
71735;BME280;59577;52.122;5.406;2022-07-10T00:54:38;102866.09;;;15.21;65.16
71735;BME280;59577;52.122;5.406;2022-07-10T00:57:07;102860.84;;;15.16;65.20
71735;BME280;59577;52.122;5.406;2022-07-10T00:59:35;102856.03;;;15.13;65.41
71735;BME280;59577;52.122;5.406;2022-07-10T01:02:02;102862.16;;;15.10;65.78
71735;BME280;59577;52.122;5.406;2022-07-10T01:04:30;102851.59;;;15.08;65.54
71735;BME280;59577;52.122;5.406;2022-07-10T01:06:57;102845.19;;;15.04;65.98
71735;BME280;59577;52.122;5.406;2022-07-10T01:09:24;102851.19;;;14.97;66.30
71735;BME280;59577;52.122;5.406;2022-07-10T01:11:51;102847.19;;;14.95;66.10
71735;BME280;59577;52.122;5.406;2022-07-10T01:14:18;102845.59;;;14.94;66.13
71735;BME280;59577;52.122;5.406;2022-07-10T01:16:45;102850.59;;;14.92;66.58
71735;BME280;59577;52.122;5.406;2022-07-10T01:19:12;102842.41;;;14.92;66.54
71735;BME280;59577;52.122;5.406;2022-07-10T01:21:39;102845.13;;;14.92;66.35
71735;BME280;59577;52.122;5.406;2022-07-10T01:24:08;102841.13;;;14.89;66.41
71735;BME280;59577;52.122;5.406;2022-07-10T01:26:35;102832.03;;;14.85;66.07
71735;BME280;59577;52.122;5.406;2022-07-10T01:29:07;102830.09;;;14.85;66.72
71735;BME280;59577;52.122;5.406;2022-07-10T01:31:34;102820.16;;;14.81;66.48
71735;BME280;59577;52.122;5.406;2022-07-10T01:34:02;102825.16;;;14.79;66.05
71735;BME280;59577;52.122;5.406;2022-07-10T01:36:30;102820.72;;;14.74;66.55
71735;BME280;59577;52.122;5.406;2022-07-10T01:38:57;102827.28;;;14.73;66.86
71735;BME280;59577;52.122;5.406;2022-07-10T01:41:25;102824.09;;;14.71;67.06
71735;BME280;59577;52.122;5.406;2022-07-10T01:43:52;102823.66;;;14.69;66.82
71735;BME280;59577;52.122;5.406;2022-07-10T01:46:19;102824.75;;;14.68;66.95
71735;BME280;59577;52.122;5.406;2022-07-10T01:48:46;102822.03;;;14.68;67.25
71735;BME280;59577;52.122;5.406;2022-07-10T01:51:13;102824.31;;;14.66;67.09
71735;BME280;59577;52.122;5.406;2022-07-10T01:53:39;102825.88;;;14.67;67.37
71735;BME280;59577;52.122;5.406;2022-07-10T01:56:08;102829.56;;;14.71;67.10
71735;BME280;59577;52.122;5.406;2022-07-10T01:58:35;102823.78;;;14.73;67.45
71735;BME280;59577;52.122;5.406;2022-07-10T02:01:04;102823.91;;;14.76;67.33
71735;BME280;59577;52.122;5.406;2022-07-10T02:03:31;102813.94;;;14.80;67.64
71735;BME280;59577;52.122;5.406;2022-07-10T02:06:16;102806.53;;;14.81;67.26
71735;BME280;59577;52.122;5.406;2022-07-10T02:08:43;102813.72;;;14.85;66.98
71735;BME280;59577;52.122;5.406;2022-07-10T02:11:09;102811.59;;;14.91;67.13
71735;BME280;59577;52.122;5.406;2022-07-10T02:13:36;102816.06;;;14.96;67.25
71735;BME280;59577;52.122;5.406;2022-07-10T02:16:03;102818.00;;;14.95;67.19
71735;BME280;59577;52.122;5.406;2022-07-10T02:18:30;102806.28;;;14.95;66.62
71735;BME280;59577;52.122;5.406;2022-07-10T02:20:58;102803.91;;;14.93;66.86
71735;BME280;59577;52.122;5.406;2022-07-10T02:23:25;102801.50;;;14.92;66.97
71735;BME280;59577;52.122;5.406;2022-07-10T02:25:51;102800.03;;;14.94;66.71
71735;BME280;59577;52.122;5.406;2022-07-10T02:28:18;102801.50;;;14.92;66.91
71735;BME280;59577;52.122;5.406;2022-07-10T02:30:44;102808.09;;;14.91;66.83
71735;BME280;59577;52.122;5.406;2022-07-10T02:33:11;102804.91;;;14.89;66.89
71735;BME280;59577;52.122;5.406;2022-07-10T02:35:37;102802.97;;;14.89;66.87
71735;BME280;59577;52.122;5.406;2022-07-10T02:38:04;102798.28;;;14.90;67.30
71735;BME280;59577;52.122;5.406;2022-07-10T02:40:30;102798.66;;;14.88;67.57
71735;BME280;59577;52.122;5.406;2022-07-10T02:42:56;102803.41;;;14.91;67.00
71735;BME280;59577;52.122;5.406;2022-07-10T02:45:23;102800.16;;;14.98;67.15
71735;BME280;59577;52.122;5.406;2022-07-10T02:47:49;102799.16;;;15.02;67.66
71735;BME280;59577;52.122;5.406;2022-07-10T02:50:16;102793.38;;;15.04;67.29
71735;BME280;59577;52.122;5.406;2022-07-10T02:52:43;102790.19;;;15.02;67.58
71735;BME280;59577;52.122;5.406;2022-07-10T02:55:09;102788.13;;;14.99;67.32
71735;BME280;59577;52.122;5.406;2022-07-10T02:57:35;102795.84;;;14.97;67.42
71735;BME280;59577;52.122;5.406;2022-07-10T03:00:03;102796.97;;;14.96;67.39
71735;BME280;59577;52.122;5.406;2022-07-10T03:02:30;102796.84;;;14.92;67.88
71735;BME280;59577;52.122;5.406;2022-07-10T03:04:57;102797.63;;;14.93;67.54
71735;BME280;59577;52.122;5.406;2022-07-10T03:07:23;102789.47;;;14.93;67.89
71735;BME280;59577;52.122;5.406;2022-07-10T03:09:50;102792.19;;;14.93;67.41
71735;BME280;59577;52.122;5.406;2022-07-10T03:12:16;102793.47;;;14.95;67.96
71735;BME280;59577;52.122;5.406;2022-07-10T03:14:43;102807.56;;;14.97;67.91
71735;BME280;59577;52.122;5.406;2022-07-10T03:17:09;102805.16;;;14.96;68.07
71735;BME280;59577;52.122;5.406;2022-07-10T03:19:35;102810.59;;;14.96;68.35
71735;BME280;59577;52.122;5.406;2022-07-10T03:22:02;102809.94;;;14.99;68.82
71735;BME280;59577;52.122;5.406;2022-07-10T03:24:29;102794.84;;;15.01;68.30
71735;BME280;59577;52.122;5.406;2022-07-10T03:26:56;102796.91;;;15.04;67.64
71735;BME280;59577;52.122;5.406;2022-07-10T03:29:22;102796.25;;;15.08;67.55
71735;BME280;59577;52.122;5.406;2022-07-10T03:31:49;102791.56;;;15.08;67.65
71735;BME280;59577;52.122;5.406;2022-07-10T03:34:15;102795.91;;;15.09;67.66
71735;BME280;59577;52.122;5.406;2022-07-10T03:36:42;102796.03;;;15.13;67.69
71735;BME280;59577;52.122;5.406;2022-07-10T03:39:08;102791.03;;;15.15;67.69
71735;BME280;59577;52.122;5.406;2022-07-10T03:41:35;102787.84;;;15.13;67.91
71735;BME280;59577;52.122;5.406;2022-07-10T03:44:01;102794.75;;;15.10;67.99
71735;BME280;59577;52.122;5.406;2022-07-10T03:46:28;102788.50;;;15.10;67.67
71735;BME280;59577;52.122;5.406;2022-07-10T03:48:54;102794.75;;;15.10;67.91
71735;BME280;59577;52.122;5.406;2022-07-10T03:51:21;102785.78;;;15.10;67.87
71735;BME280;59577;52.122;5.406;2022-07-10T03:53:47;102783.53;;;15.12;68.06
71735;BME280;59577;52.122;5.406;2022-07-10T03:56:14;102786.81;;;15.17;68.28
71735;BME280;59577;52.122;5.406;2022-07-10T03:59:01;102786.16;;;15.20;68.26
71735;BME280;59577;52.122;5.406;2022-07-10T04:01:27;102782.66;;;15.20;68.08
71735;BME280;59577;52.122;5.406;2022-07-10T04:03:54;102774.13;;;15.21;68.12
71735;BME280;59577;52.122;5.406;2022-07-10T04:06:20;102769.59;;;15.26;68.06
71735;BME280;59577;52.122;5.406;2022-07-10T04:08:47;102769.72;;;15.29;67.52
71735;BME280;59577;52.122;5.406;2022-07-10T04:11:14;102773.03;;;15.35;67.56
71735;BME280;59577;52.122;5.406;2022-07-10T04:13:40;102784.41;;;15.37;67.59
71735;BME280;59577;52.122;5.406;2022-07-10T04:16:07;102778.97;;;15.37;67.13
71735;BME280;59577;52.122;5.406;2022-07-10T04:18:36;102781.34;;;15.38;67.76
71735;BME280;59577;52.122;5.406;2022-07-10T04:21:03;102778.63;;;15.38;67.89
71735;BME280;59577;52.122;5.406;2022-07-10T04:23:32;102783.06;;;15.43;67.49
71735;BME280;59577;52.122;5.406;2022-07-10T04:25:59;102783.06;;;15.43;67.33
71735;BME280;59577;52.122;5.406;2022-07-10T04:28:25;102776.13;;;15.46;67.60
71735;BME280;59577;52.122;5.406;2022-07-10T04:30:52;102781.25;;;15.47;67.24
71735;BME280;59577;52.122;5.406;2022-07-10T04:33:18;102778.19;;;15.49;67.49
71735;BME280;59577;52.122;5.406;2022-07-10T04:35:45;102774.66;;;15.48;67.73
71735;BME280;59577;52.122;5.406;2022-07-10T04:38:11;102775.47;;;15.49;67.52
71735;BME280;59577;52.122;5.406;2022-07-10T04:40:38;102780.22;;;15.52;67.23
71735;BME280;59577;52.122;5.406;2022-07-10T04:43:04;102775.59;;;15.52;67.67
71735;BME280;59577;52.122;5.406;2022-07-10T04:45:31;102785.03;;;15.55;66.93
71735;BME280;59577;52.122;5.406;2022-07-10T04:47:57;102778.09;;;15.57;67.27
71735;BME280;59577;52.122;5.406;2022-07-10T04:50:24;102774.78;;;15.64;66.78
71735;BME280;59577;52.122;5.406;2022-07-10T04:52:50;102777.66;;;15.68;67.14
71735;BME280;59577;52.122;5.406;2022-07-10T04:55:17;102769.13;;;15.69;67.10
71735;BME280;59577;52.122;5.406;2022-07-10T04:57:43;102776.78;;;15.76;66.66
71735;BME280;59577;52.122;5.406;2022-07-10T05:00:11;102773.59;;;15.86;67.68
71735;BME280;59577;52.122;5.406;2022-07-10T05:02:37;102771.00;;;15.90;67.04
71735;BME280;59577;52.122;5.406;2022-07-10T05:05:04;102780.78;;;15.91;67.05
71735;BME280;59577;52.122;5.406;2022-07-10T05:07:31;102780.00;;;15.90;67.12
71735;BME280;59577;52.122;5.406;2022-07-10T05:09:58;102780.78;;;16.03;67.29
71735;BME280;59577;52.122;5.406;2022-07-10T05:12:25;102790.34;;;16.22;67.10
71735;BME280;59577;52.122;5.406;2022-07-10T05:14:51;102785.31;;;16.48;66.66
71735;BME280;59577;52.122;5.406;2022-07-10T05:17:18;102780.84;;;16.68;66.01
71735;BME280;59577;52.122;5.406;2022-07-10T05:19:45;102785.72;;;16.63;65.13
71735;BME280;59577;52.122;5.406;2022-07-10T05:22:12;102782.34;;;16.53;65.28
71735;BME280;59577;52.122;5.406;2022-07-10T05:24:38;102777.22;;;16.52;65.34
71735;BME280;59577;52.122;5.406;2022-07-10T05:27:06;102779.94;;;16.52;65.22
71735;BME280;59577;52.122;5.406;2022-07-10T05:29:32;102780.75;;;16.52;65.90
71735;BME280;59577;52.122;5.406;2022-07-10T05:31:58;102792.47;;;16.53;65.77
71735;BME280;59577;52.122;5.406;2022-07-10T05:34:25;102784.97;;;16.50;65.89
71735;BME280;59577;52.122;5.406;2022-07-10T05:36:51;102787.25;;;16.48;67.22
71735;BME280;59577;52.122;5.406;2022-07-10T05:39:18;102791.00;;;16.43;67.32
71735;BME280;59577;52.122;5.406;2022-07-10T05:41:44;102784.31;;;16.41;66.63
71735;BME280;59577;52.122;5.406;2022-07-10T05:44:11;102785.88;;;16.42;66.85
71735;BME280;59577;52.122;5.406;2022-07-10T05:46:39;102782.47;;;16.45;66.80
71735;BME280;59577;52.122;5.406;2022-07-10T05:49:06;102783.47;;;16.40;66.72
71735;BME280;59577;52.122;5.406;2022-07-10T05:51:32;102783.84;;;16.39;66.78
71735;BME280;59577;52.122;5.406;2022-07-10T05:54:10;102776.56;;;16.43;67.06
71735;BME280;59577;52.122;5.406;2022-07-10T05:56:36;102784.41;;;16.44;67.25
71735;BME280;59577;52.122;5.406;2022-07-10T05:59:03;102782.03;;;16.43;67.22
71735;BME280;59577;52.122;5.406;2022-07-10T06:01:29;102784.06;;;16.46;67.97
71735;BME280;59577;52.122;5.406;2022-07-10T06:03:56;102786.56;;;16.51;67.00
71735;BME280;59577;52.122;5.406;2022-07-10T06:06:22;102776.63;;;16.59;67.11
71735;BME280;59577;52.122;5.406;2022-07-10T06:08:49;102785.03;;;16.66;66.72
71735;BME280;59577;52.122;5.406;2022-07-10T06:11:16;102789.25;;;16.76;66.77
71735;BME280;59577;52.122;5.406;2022-07-10T06:13:43;102775.75;;;16.83;66.30
71735;BME280;59577;52.122;5.406;2022-07-10T06:16:09;102786.88;;;17.02;66.34
71735;BME280;59577;52.122;5.406;2022-07-10T06:18:36;102778.75;;;17.18;65.11
71735;BME280;59577;52.122;5.406;2022-07-10T06:21:03;102780.25;;;17.32;65.31
71735;BME280;59577;52.122;5.406;2022-07-10T06:23:30;102779.75;;;17.42;64.46
71735;BME280;59577;52.122;5.406;2022-07-10T06:25:56;102777.44;;;17.44;64.39
71735;BME280;59577;52.122;5.406;2022-07-10T06:28:23;102778.34;;;17.48;64.00
71735;BME280;59577;52.122;5.406;2022-07-10T06:30:49;102785.75;;;17.47;64.13
71735;BME280;59577;52.122;5.406;2022-07-10T06:33:23;102787.44;;;17.52;63.82
71735;BME280;59577;52.122;5.406;2022-07-10T06:35:50;102786.66;;;17.52;64.15
71735;BME280;59577;52.122;5.406;2022-07-10T06:38:16;102794.19;;;17.55;64.12
71735;BME280;59577;52.122;5.406;2022-07-10T06:40:45;102793.72;;;17.53;64.62
71735;BME280;59577;52.122;5.406;2022-07-10T06:43:14;102786.03;;;17.42;64.25
71735;BME280;59577;52.122;5.406;2022-07-10T06:45:41;102786.47;;;17.44;63.93
71735;BME280;59577;52.122;5.406;2022-07-10T06:48:09;102787.34;;;17.48;64.31
71735;BME280;59577;52.122;5.406;2022-07-10T06:50:36;102790.97;;;17.53;64.28
71735;BME280;59577;52.122;5.406;2022-07-10T06:53:03;102793.91;;;17.60;64.38
71735;BME280;59577;52.122;5.406;2022-07-10T06:55:30;102783.75;;;17.60;63.68
71735;BME280;59577;52.122;5.406;2022-07-10T06:57:57;102780.75;;;17.65;63.54
71735;BME280;59577;52.122;5.406;2022-07-10T07:00:24;102788.78;;;17.74;63.75
71735;BME280;59577;52.122;5.406;2022-07-10T07:02:51;102787.28;;;17.77;63.33
71735;BME280;59577;52.122;5.406;2022-07-10T07:05:18;102790.84;;;17.77;63.25
71735;BME280;59577;52.122;5.406;2022-07-10T07:07:44;102789.22;;;17.76;63.64
71735;BME280;59577;52.122;5.406;2022-07-10T07:10:11;102793.22;;;17.79;63.68
71735;BME280;59577;52.122;5.406;2022-07-10T07:12:38;102789.56;;;17.75;63.47
71735;BME280;59577;52.122;5.406;2022-07-10T07:15:05;102786.13;;;17.78;63.70
71735;BME280;59577;52.122;5.406;2022-07-10T07:17:32;102791.72;;;17.81;63.63
71735;BME280;59577;52.122;5.406;2022-07-10T07:20:12;102790.78;;;17.90;64.11
71735;BME280;59577;52.122;5.406;2022-07-10T07:22:57;102793.16;;;17.91;63.25
71735;BME280;59577;52.122;5.406;2022-07-10T07:25:37;102788.47;;;17.92;63.21
71735;BME280;59577;52.122;5.406;2022-07-10T07:28:06;102789.34;;;17.96;63.11
71735;BME280;59577;52.122;5.406;2022-07-10T07:30:32;102794.28;;;18.06;63.37
71735;BME280;59577;52.122;5.406;2022-07-10T07:32:59;102791.16;;;18.23;62.92
71735;BME280;59577;52.122;5.406;2022-07-10T07:35:26;102790.22;;;18.51;61.86
71735;BME280;59577;52.122;5.406;2022-07-10T07:37:52;102784.41;;;18.72;61.11
71735;BME280;59577;52.122;5.406;2022-07-10T07:40:21;102792.31;;;18.93;60.78
71735;BME280;59577;52.122;5.406;2022-07-10T07:42:49;102792.16;;;18.86;60.67
71735;BME280;59577;52.122;5.406;2022-07-10T07:45:16;102795.94;;;18.82;60.59
71735;BME280;59577;52.122;5.406;2022-07-10T07:47:51;102795.53;;;18.99;60.41
71735;BME280;59577;52.122;5.406;2022-07-10T07:50:22;102791.94;;;19.14;60.00
71735;BME280;59577;52.122;5.406;2022-07-10T07:52:49;102798.50;;;19.29;59.80
71735;BME280;59577;52.122;5.406;2022-07-10T07:55:17;102796.88;;;19.28;59.34
71735;BME280;59577;52.122;5.406;2022-07-10T07:57:45;102800.28;;;19.22;58.91
71735;BME280;59577;52.122;5.406;2022-07-10T08:00:13;102798.00;;;19.04;59.29
71735;BME280;59577;52.122;5.406;2022-07-10T08:02:43;102806.25;;;18.85;60.04
71735;BME280;59577;52.122;5.406;2022-07-10T08:05:10;102802.88;;;18.75;60.07
71735;BME280;59577;52.122;5.406;2022-07-10T08:07:39;102809.03;;;18.69;60.27
71735;BME280;59577;52.122;5.406;2022-07-10T08:10:10;102810.31;;;18.75;60.24
71735;BME280;59577;52.122;5.406;2022-07-10T08:12:37;102806.50;;;18.79;60.25
71735;BME280;59577;52.122;5.406;2022-07-10T08:15:07;102803.22;;;18.90;60.01
71735;BME280;59577;52.122;5.406;2022-07-10T08:17:34;102803.28;;;18.93;59.76
71735;BME280;59577;52.122;5.406;2022-07-10T08:20:01;102796.34;;;19.00;60.46
71735;BME280;59577;52.122;5.406;2022-07-10T08:22:28;102803.13;;;19.06;60.16
71735;BME280;59577;52.122;5.406;2022-07-10T08:24:54;102803.75;;;19.19;60.30
71735;BME280;59577;52.122;5.406;2022-07-10T08:27:23;102793.84;;;19.33;59.54
71735;BME280;59577;52.122;5.406;2022-07-10T08:29:49;102794.09;;;19.48;58.91
71735;BME280;59577;52.122;5.406;2022-07-10T08:32:16;102797.78;;;19.56;58.53
71735;BME280;59577;52.122;5.406;2022-07-10T08:34:43;102805.34;;;19.62;58.72
71735;BME280;59577;52.122;5.406;2022-07-10T08:37:09;102798.75;;;19.67;58.75
71735;BME280;59577;52.122;5.406;2022-07-10T08:39:36;102797.28;;;19.73;58.23
71735;BME280;59577;52.122;5.406;2022-07-10T08:42:04;102795.88;;;19.83;58.22
71735;BME280;59577;52.122;5.406;2022-07-10T08:44:31;102794.06;;;19.90;57.79
71735;BME280;59577;52.122;5.406;2022-07-10T08:47:12;102792.81;;;20.11;57.36
71735;BME280;59577;52.122;5.406;2022-07-10T08:49:45;102790.59;;;20.47;58.29
71735;BME280;59577;52.122;5.406;2022-07-10T08:52:25;102801.28;;;20.82;56.18
71735;BME280;59577;52.122;5.406;2022-07-10T08:54:53;102783.53;;;21.14;54.79
71735;BME280;59577;52.122;5.406;2022-07-10T08:57:23;102788.22;;;21.47;54.88
71735;BME280;59577;52.122;5.406;2022-07-10T08:59:50;102787.66;;;21.72;53.53
71735;BME280;59577;52.122;5.406;2022-07-10T09:02:17;102784.13;;;21.75;53.10
71735;BME280;59577;52.122;5.406;2022-07-10T09:04:44;102777.50;;;21.87;53.23
71735;BME280;59577;52.122;5.406;2022-07-10T09:07:10;102781.19;;;22.05;53.93
71735;BME280;59577;52.122;5.406;2022-07-10T09:09:54;102793.38;;;22.01;52.97
71735;BME280;59577;52.122;5.406;2022-07-10T09:12:22;102772.94;;;22.09;52.98
71735;BME280;59577;52.122;5.406;2022-07-10T09:14:50;102779.25;;;22.13;53.00
71735;BME280;59577;52.122;5.406;2022-07-10T09:17:18;102775.09;;;22.33;52.56
71735;BME280;59577;52.122;5.406;2022-07-10T09:19:44;102777.19;;;22.58;52.27
71735;BME280;59577;52.122;5.406;2022-07-10T09:22:12;102775.63;;;22.64;51.99
71735;BME280;59577;52.122;5.406;2022-07-10T09:24:48;102777.50;;;22.46;52.10
71735;BME280;59577;52.122;5.406;2022-07-10T09:27:22;102784.56;;;22.36;52.07
71735;BME280;59577;52.122;5.406;2022-07-10T09:29:51;102776.69;;;22.38;51.54
71735;BME280;59577;52.122;5.406;2022-07-10T09:32:25;102776.38;;;22.54;51.28
71735;BME280;59577;52.122;5.406;2022-07-10T09:34:53;102765.41;;;22.72;50.16
71735;BME280;59577;52.122;5.406;2022-07-10T09:37:41;102765.34;;;22.61;50.24
71735;BME280;59577;52.122;5.406;2022-07-10T09:40:09;102771.97;;;22.42;50.73
71735;BME280;59577;52.122;5.406;2022-07-10T09:42:43;102773.41;;;22.22;51.48
71735;BME280;59577;52.122;5.406;2022-07-10T09:47:36;102760.44;;;22.22;52.05
71735;BME280;59577;52.122;5.406;2022-07-10T09:50:03;102752.22;;;22.33;51.13
71735;BME280;59577;52.122;5.406;2022-07-10T09:52:31;102749.22;;;22.63;51.89
71735;BME280;59577;52.122;5.406;2022-07-10T09:54:59;102748.50;;;22.95;50.85
71735;BME280;59577;52.122;5.406;2022-07-10T09:57:27;102746.91;;;22.87;50.17
71735;BME280;59577;52.122;5.406;2022-07-10T09:59:55;102746.03;;;22.61;50.05
71735;BME280;59577;52.122;5.406;2022-07-10T10:02:22;102750.38;;;22.55;51.73
71735;BME280;59577;52.122;5.406;2022-07-10T10:04:50;102738.50;;;22.47;51.61
71735;BME280;59577;52.122;5.406;2022-07-10T10:07:18;102745.25;;;22.64;50.85
71735;BME280;59577;52.122;5.406;2022-07-10T10:09:51;102737.47;;;22.95;50.58
71735;BME280;59577;52.122;5.406;2022-07-10T10:12:31;102737.13;;;23.15;49.89
71735;BME280;59577;52.122;5.406;2022-07-10T10:15:02;102745.03;;;23.09;49.87
71735;BME280;59577;52.122;5.406;2022-07-10T10:17:28;102754.41;;;22.94;50.63
71735;BME280;59577;52.122;5.406;2022-07-10T10:19:55;102746.88;;;22.69;50.26
71735;BME280;59577;52.122;5.406;2022-07-10T10:22:42;102759.38;;;22.45;51.45
71735;BME280;59577;52.122;5.406;2022-07-10T10:25:09;102757.41;;;22.42;51.74
71735;BME280;59577;52.122;5.406;2022-07-10T10:27:36;102753.47;;;22.39;51.74
71735;BME280;59577;52.122;5.406;2022-07-10T10:30:03;102751.13;;;22.52;51.58
71735;BME280;59577;52.122;5.406;2022-07-10T10:32:30;102755.91;;;22.62;52.33
71735;BME280;59577;52.122;5.406;2022-07-10T10:34:56;102752.34;;;22.58;52.36
71735;BME280;59577;52.122;5.406;2022-07-10T10:37:34;102753.16;;;22.66;51.56
71735;BME280;59577;52.122;5.406;2022-07-10T10:40:04;102747.69;;;22.84;51.45
71735;BME280;59577;52.122;5.406;2022-07-10T10:42:40;102741.75;;;22.82;50.97
71735;BME280;59577;52.122;5.406;2022-07-10T10:47:59;102733.19;;;23.08;50.77
71735;BME280;59577;52.122;5.406;2022-07-10T10:50:49;102736.75;;;23.41;50.54
71735;BME280;59577;52.122;5.406;2022-07-10T10:53:19;102744.66;;;23.50;49.17
71735;BME280;59577;52.122;5.406;2022-07-10T10:58:45;102744.25;;;23.08;49.26
71735;BME280;59577;52.122;5.406;2022-07-10T11:04:13;102739.75;;;22.68;50.22
71735;BME280;59577;52.122;5.406;2022-07-10T11:06:43;102751.56;;;22.61;50.34
71735;BME280;59577;52.122;5.406;2022-07-10T11:09:29;102739.72;;;22.53;50.38
71735;BME280;59577;52.122;5.406;2022-07-10T11:12:10;102742.44;;;22.43;51.12
71735;BME280;59577;52.122;5.406;2022-07-10T11:14:46;102742.44;;;22.46;51.17
71735;BME280;59577;52.122;5.406;2022-07-10T11:17:14;102744.88;;;22.62;50.84
71735;BME280;59577;52.122;5.406;2022-07-10T11:19:41;102740.16;;;22.70;50.67
71735;BME280;59577;52.122;5.406;2022-07-10T11:22:33;102735.06;;;22.83;50.79
71735;BME280;59577;52.122;5.406;2022-07-10T11:25:23;102737.84;;;22.83;51.07
71735;BME280;59577;52.122;5.406;2022-07-10T11:28:09;102737.06;;;22.93;51.27
71735;BME280;59577;52.122;5.406;2022-07-10T11:30:50;102742.22;;;23.02;50.38
71735;BME280;59577;52.122;5.406;2022-07-10T11:33:17;102731.97;;;23.06;49.78
71735;BME280;59577;52.122;5.406;2022-07-10T11:35:51;102728.44;;;23.13;49.25
71735;BME280;59577;52.122;5.406;2022-07-10T11:38:23;102741.88;;;23.21;48.31
71735;BME280;59577;52.122;5.406;2022-07-10T11:40:50;102737.13;;;23.25;48.46
71735;BME280;59577;52.122;5.406;2022-07-10T11:43:21;102737.56;;;23.24;48.53
71735;BME280;59577;52.122;5.406;2022-07-10T11:46:04;102739.88;;;23.15;49.57
71735;BME280;59577;52.122;5.406;2022-07-10T11:48:38;102731.19;;;23.05;49.06
71735;BME280;59577;52.122;5.406;2022-07-10T11:51:17;102740.22;;;22.88;48.77
71735;BME280;59577;52.122;5.406;2022-07-10T11:54:09;102729.91;;;22.70;49.47
71735;BME280;59577;52.122;5.406;2022-07-10T11:56:40;102723.63;;;22.77;49.52
71735;BME280;59577;52.122;5.406;2022-07-10T11:59:12;102720.06;;;22.84;49.74
71735;BME280;59577;52.122;5.406;2022-07-10T12:01:43;102715.41;;;23.06;49.91
71735;BME280;59577;52.122;5.406;2022-07-10T12:04:20;102713.84;;;23.34;49.60
71735;BME280;59577;52.122;5.406;2022-07-10T12:06:51;102717.00;;;23.57;49.52
71735;BME280;59577;52.122;5.406;2022-07-10T12:09:21;102720.16;;;23.92;48.74
71735;BME280;59577;52.122;5.406;2022-07-10T12:12:00;102717.28;;;24.24;47.33
71735;BME280;59577;52.122;5.406;2022-07-10T12:14:27;102721.13;;;24.45;46.09
71735;BME280;59577;52.122;5.406;2022-07-10T12:16:55;102720.47;;;24.23;45.63
71735;BME280;59577;52.122;5.406;2022-07-10T12:19:36;102713.41;;;24.00;46.30
71735;BME280;59577;52.122;5.406;2022-07-10T12:22:07;102712.56;;;24.10;45.70
71735;BME280;59577;52.122;5.406;2022-07-10T12:24:33;102711.34;;;24.22;45.37
71735;BME280;59577;52.122;5.406;2022-07-10T12:27:00;102720.03;;;24.24;45.86
71735;BME280;59577;52.122;5.406;2022-07-10T12:29:28;102711.75;;;24.28;44.60
71735;BME280;59577;52.122;5.406;2022-07-10T12:32:00;102722.06;;;24.16;45.42
71735;BME280;59577;52.122;5.406;2022-07-10T12:34:35;102723.66;;;24.17;45.71
71735;BME280;59577;52.122;5.406;2022-07-10T12:37:12;102720.06;;;24.28;44.77
71735;BME280;59577;52.122;5.406;2022-07-10T12:39:48;102726.28;;;24.46;45.61
71735;BME280;59577;52.122;5.406;2022-07-10T12:42:26;102717.53;;;24.62;44.38
71735;BME280;59577;52.122;5.406;2022-07-10T12:44:53;102711.13;;;24.76;43.77
71735;BME280;59577;52.122;5.406;2022-07-10T12:47:21;102712.94;;;25.04;44.45
71735;BME280;59577;52.122;5.406;2022-07-10T12:52:29;102709.53;;;25.34;44.05
71735;BME280;59577;52.122;5.406;2022-07-10T12:55:07;102716.31;;;25.30;44.11
71735;BME280;59577;52.122;5.406;2022-07-10T12:57:48;102702.16;;;25.13;42.45
71735;BME280;59577;52.122;5.406;2022-07-10T13:00:18;102705.75;;;25.10;41.88
71735;BME280;59577;52.122;5.406;2022-07-10T13:02:46;102707.19;;;25.29;43.52
71735;BME280;59577;52.122;5.406;2022-07-10T13:05:33;102704.84;;;25.31;43.15
71735;BME280;59577;52.122;5.406;2022-07-10T13:08:20;102704.22;;;25.55;43.30
71735;BME280;59577;52.122;5.406;2022-07-10T13:10:50;102705.13;;;25.82;42.56
71735;BME280;59577;52.122;5.406;2022-07-10T13:13:18;102701.31;;;26.07;42.80